General Aviation Weather

Text Reports

Enter one or more of the following location identifiers separated by a space:

Zip Code, Four-Character ICAO or Three-Character IATA airport codes.

METAR - Aviation Routine Weather Report
KLIC - Limon, Colorado
Updated at 6:55 PM GMT on August 31, 2015 (12:55 PM MDT):
METAR KLIC 311855Z AUTO 36012KT 10SM -RA CLR 27/08 A3012 RMK AO2 SLP125 P0000 T02670083
TAF - Terminal Area Forecast
KLIC - Limon, Colorado
Updated at 6:55 PM GMT on August 31, 2015 (12:55 PM MDT):
No TAF is currently available for this location.
Decoded:
No decoded TAF is available.
PIREP - Pilot Weather Report
KLIC - Limon, Colorado
Updated at 6:55 PM GMT on August 31, 2015 (12:55 PM MDT):
No PIREP is currently available for this location.
AIRMET - Airmens Meteorological Information
KLIC - Limon, Colorado
Updated at 6:55 PM GMT on August 31, 2015 (12:55 PM MDT):
No AIRMET is currently available for this location.
SIGMET - Significant Meteorological Information
KLIC - Limon, Colorado
Updated at 6:55 PM GMT on August 31, 2015 (12:55 PM MDT):
No SIGMET is currently available for this location.
NOTAM - Notice to Airmen
KLIC - Limon, Colorado
Updated at 6:55 PM GMT on August 31, 2015 (12:55 PM MDT):
No NOTAM is currently available for this location.
Forecast Area
KLIC - Limon, Colorado
Updated at 6:55 PM GMT on August 31, 2015 (12:55 PM MDT):
No NOTAM is currently available for this location.
Aviation Weather Maps